Time;durP1;ratioP1;P1;durP2;ratioP2;P2;SDS_P1;SDS_P2;PMS_P1;PMS_P2;Temp;Humidity;BMP_temperature;BMP_pressure;BME280_temperature;BME280_humidity;BME280_pressure;Samples;Min_cycle;Max_cycle;Signal;HPM_P1;HPM_P2
2024/01/25 00:10:19;;;;;;;19.45;3.58;;;;;;;;;;6160061;23;20119;-86
2024/01/25 00:13:08;;;;;;;27.27;3.92;;;;;;;;;;6144751;23;20431;-86
2024/01/25 00:18:40;;;;;;;25.17;3.40;;;;;;;;;;6170909;23;20025;-89
2024/01/25 00:21:06;;;;;;;14.70;3.15;;;;;;;;;;6124433;23;20032;-89
2024/01/25 00:23:33;;;;;;;14.80;3.20;;;;;;;;;;6124175;23;20639;-90
2024/01/25 00:25:59;;;;;;;20.13;3.42;;;;;;;;;;6122426;23;20476;-89
2024/01/25 00:28:26;;;;;;;25.63;3.47;;;;;;;;;;6123779;23;20021;-89
2024/01/25 00:30:52;;;;;;;25.42;3.88;;;;;;;;;;6123969;23;20093;-90
2024/01/25 00:33:18;;;;;;;21.80;3.33;;;;;;;;;;6149575;23;20021;-89
2024/01/25 00:35:44;;;;;;;15.07;2.95;;;;;;;;;;6121877;23;20089;-89
2024/01/25 00:38:11;;;;;;;14.40;3.17;;;;;;;;;;6124928;23;20338;-89
2024/01/25 00:40:37;;;;;;;12.68;3.45;;;;;;;;;;6146991;23;20027;-89
2024/01/25 00:43:03;;;;;;;13.07;3.05;;;;;;;;;;6123518;23;20119;-89
2024/01/25 00:45:29;;;;;;;21.52;3.63;;;;;;;;;;6124545;23;20079;-89
2024/01/25 00:47:55;;;;;;;26.30;3.83;;;;;;;;;;6121677;23;20102;-89
2024/01/25 00:50:25;;;;;;;19.55;3.75;;;;;;;;;;6125726;23;20095;-89
2024/01/25 00:52:52;;;;;;;23.02;3.97;;;;;;;;;;6122522;23;20526;-89
2024/01/25 00:55:18;;;;;;;20.33;3.47;;;;;;;;;;6149308;23;20077;-89
2024/01/25 00:57:44;;;;;;;18.70;3.13;;;;;;;;;;6121812;23;20525;-89
2024/01/25 01:00:11;;;;;;;15.35;3.15;;;;;;;;;;6148874;23;20015;-90
2024/01/25 01:02:39;;;;;;;16.00;2.95;;;;;;;;;;6123147;23;20123;-89
2024/01/25 01:05:05;;;;;;;22.25;3.88;;;;;;;;;;6126020;23;20023;-89
2024/01/25 01:07:31;;;;;;;23.40;3.45;;;;;;;;;;6125400;23;20024;-87
2024/01/25 01:09:59;;;;;;;17.83;3.55;;;;;;;;;;6123495;23;20016;-90
2024/01/25 01:12:25;;;;;;;19.58;3.53;;;;;;;;;;6173786;23;20079;-89
2024/01/25 01:14:51;;;;;;;20.42;3.10;;;;;;;;;;6120975;23;20021;-89
2024/01/25 01:17:18;;;;;;;24.23;3.47;;;;;;;;;;6122912;23;20641;-89
2024/01/25 01:19:44;;;;;;;23.27;4.95;;;;;;;;;;6122260;23;20605;-89
2024/01/25 01:22:10;;;;;;;21.10;3.80;;;;;;;;;;6148823;23;20024;-89
2024/01/25 01:24:37;;;;;;;21.33;3.97;;;;;;;;;;6121546;23;20024;-89
2024/01/25 01:27:03;;;;;;;29.02;4.03;;;;;;;;;;6124473;23;20450;-89
2024/01/25 01:29:29;;;;;;;15.65;2.63;;;;;;;;;;6123875;23;20480;-89
2024/01/25 01:31:55;;;;;;;21.02;3.72;;;;;;;;;;6120409;23;20109;-89
2024/01/25 01:34:21;;;;;;;26.70;4.55;;;;;;;;;;6148158;23;20017;-89
2024/01/25 01:36:49;;;;;;;21.67;3.78;;;;;;;;;;6145785;23;20048;-89
2024/01/25 01:39:15;;;;;;;;;;;;;;;;;;6148824;23;20017;-89
2024/01/25 01:41:41;;;;;;;17.30;3.88;;;;;;;;;;6145008;23;19918;-89
2024/01/25 01:44:07;;;;;;;18.27;3.47;;;;;;;;;;6148608;23;20372;-89
2024/01/25 01:46:36;;;;;;;28.00;4.03;;;;;;;;;;6147631;23;20071;-89
2024/01/25 01:49:02;;;;;;;;;;;;;;;;;;6124725;23;20512;-88
2024/01/25 01:51:29;;;;;;;22.80;4.30;;;;;;;;;;6173243;23;20008;-89
2024/01/25 01:53:55;;;;;;;20.88;3.75;;;;;;;;;;6125040;23;20028;-90
2024/01/25 01:56:21;;;;;;;23.20;4.75;;;;;;;;;;6125959;23;20483;-89
2024/01/25 01:58:48;;;;;;;27.20;5.45;;;;;;;;;;6123293;23;20017;-88
2024/01/25 02:01:14;;;;;;;20.10;3.17;;;;;;;;;;6149347;23;20017;-89
2024/01/25 02:03:42;;;;;;;22.55;4.10;;;;;;;;;;6122752;23;20097;-89
2024/01/25 02:06:08;;;;;;;24.15;4.47;;;;;;;;;;6126009;23;20012;-89
2024/01/25 02:08:34;;;;;;;18.60;3.60;;;;;;;;;;6124514;23;20319;-89
2024/01/25 02:11:00;;;;;;;25.38;4.30;;;;;;;;;;6124460;23;20405;-88
2024/01/25 02:13:26;;;;;;;21.17;3.28;;;;;;;;;;6150200;23;20108;-89
2024/01/25 02:15:52;;;;;;;16.90;2.78;;;;;;;;;;6124267;23;20045;-89
2024/01/25 02:18:18;;;;;;;21.58;3.45;;;;;;;;;;6124969;23;20697;-89
2024/01/25 02:20:44;;;;;;;21.27;3.42;;;;;;;;;;6148919;23;20021;-89
2024/01/25 02:23:10;;;;;;;29.35;4.03;;;;;;;;;;6149831;23;20329;-89
2024/01/25 02:25:36;;;;;;;21.08;3.92;;;;;;;;;;6123377;23;20501;-89
2024/01/25 02:28:03;;;;;;;26.70;3.40;;;;;;;;;;6125412;23;20551;-90
2024/01/25 02:30:29;;;;;;;21.48;4.30;;;;;;;;;;6123940;23;20021;-89
2024/01/25 02:32:55;;;;;;;18.80;3.63;;;;;;;;;;6122043;23;20087;-89
2024/01/25 02:35:21;;;;;;;18.85;3.67;;;;;;;;;;6123273;23;20104;-89
2024/01/25 02:37:48;;;;;;;27.13;4.32;;;;;;;;;;6122068;23;20028;-89
2024/01/25 02:40:14;;;;;;;31.48;4.28;;;;;;;;;;6124624;23;20013;-89
2024/01/25 02:42:40;;;;;;;20.00;3.58;;;;;;;;;;6121747;23;20017;-89
2024/01/25 02:45:06;;;;;;;24.05;3.95;;;;;;;;;;6122877;23;20023;-90
2024/01/25 02:47:32;;;;;;;24.52;3.72;;;;;;;;;;6124360;23;20017;-89
2024/01/25 02:49:58;;;;;;;23.60;3.88;;;;;;;;;;6121415;23;20025;-88
2024/01/25 02:52:24;;;;;;;16.25;4.32;;;;;;;;;;6149530;23;20046;-90
2024/01/25 02:54:50;;;;;;;20.10;3.67;;;;;;;;;;6121792;23;20053;-89
2024/01/25 02:57:19;;;;;;;27.83;4.18;;;;;;;;;;6124309;23;20421;-89
2024/01/25 02:59:46;;;;;;;22.20;3.78;;;;;;;;;;6146241;23;20028;-89
2024/01/25 03:02:12;;;;;;;21.73;3.50;;;;;;;;;;6125204;23;20078;-89
2024/01/25 03:04:38;;;;;;;22.60;3.55;;;;;;;;;;6145482;23;20446;-89
2024/01/25 03:07:04;;;;;;;24.38;3.50;;;;;;;;;;6122377;23;20350;-89
2024/01/25 03:09:30;;;;;;;25.77;4.75;;;;;;;;;;6124311;23;20028;-89
2024/01/25 03:11:57;;;;;;;16.65;3.75;;;;;;;;;;6147348;23;20206;-90
2024/01/25 03:14:23;;;;;;;21.35;3.60;;;;;;;;;;6147837;23;20442;-90
2024/01/25 03:16:49;;;;;;;20.33;3.28;;;;;;;;;;6145269;23;20029;-89
2024/01/25 03:19:15;;;;;;;21.08;3.88;;;;;;;;;;6122871;23;20012;-89
2024/01/25 03:21:41;;;;;;;22.10;4.82;;;;;;;;;;6120702;23;20021;-89
2024/01/25 03:24:07;;;;;;;17.52;3.40;;;;;;;;;;6123746;23;20024;-89
2024/01/25 03:26:33;;;;;;;17.52;3.33;;;;;;;;;;6146726;23;20024;-89
2024/01/25 03:28:59;;;;;;;25.20;3.80;;;;;;;;;;6120406;23;20108;-88
2024/01/25 03:31:25;;;;;;;28.85;4.25;;;;;;;;;;6123225;23;20083;-89
2024/01/25 03:33:51;;;;;;;24.15;4.25;;;;;;;;;;6145229;23;20021;-89
2024/01/25 03:36:17;;;;;;;21.13;3.38;;;;;;;;;;6148546;23;20508;-89
2024/01/25 03:38:45;;;;;;;26.50;4.15;;;;;;;;;;6121497;23;20025;-89
2024/01/25 03:41:11;;;;;;;22.30;4.05;;;;;;;;;;6122799;23;20743;-89
2024/01/25 03:43:37;;;;;;;28.67;3.88;;;;;;;;;;6121273;23;20024;-89
2024/01/25 03:46:04;;;;;;;21.80;3.70;;;;;;;;;;6124133;23;20025;-89
2024/01/25 03:48:30;;;;;;;20.25;3.40;;;;;;;;;;6122047;23;20032;-88
2024/01/25 03:50:56;;;;;;;27.40;5.10;;;;;;;;;;6145095;23;20273;-89
2024/01/25 03:53:23;;;;;;;22.50;3.38;;;;;;;;;;6148051;23;20676;-89
2024/01/25 03:55:49;;;;;;;26.80;3.95;;;;;;;;;;6121351;23;20056;-89
2024/01/25 03:58:15;;;;;;;26.65;4.32;;;;;;;;;;6148546;23;20016;-89
2024/01/25 04:00:41;;;;;;;21.73;3.60;;;;;;;;;;6119678;23;20387;-89
2024/01/25 04:03:08;;;;;;;25.27;3.22;;;;;;;;;;6123903;23;20028;-89
2024/01/25 04:05:34;;;;;;;25.90;3.80;;;;;;;;;;6123795;23;20029;-89
2024/01/25 04:08:00;;;;;;;20.40;3.70;;;;;;;;;;6124583;23;20028;-89
2024/01/25 04:10:26;;;;;;;19.85;4.20;;;;;;;;;;6124044;23;20024;-88
2024/01/25 04:12:52;;;;;;;23.33;4.30;;;;;;;;;;6147043;23;20140;-89
2024/01/25 04:15:18;;;;;;;18.80;3.65;;;;;;;;;;6121999;23;20024;-89
2024/01/25 04:17:44;;;;;;;23.33;3.83;;;;;;;;;;6146134;23;20024;-89
2024/01/25 04:20:11;;;;;;;22.85;3.53;;;;;;;;;;6147319;23;20017;-89
2024/01/25 04:22:37;;;;;;;22.27;3.78;;;;;;;;;;6147552;23;20024;-89
2024/01/25 04:25:04;;;;;;;17.40;3.90;;;;;;;;;;6122920;23;20021;-89
2024/01/25 04:27:30;;;;;;;18.35;3.22;;;;;;;;;;6148942;23;20108;-88
2024/01/25 04:29:59;;;;;;;25.60;3.85;;;;;;;;;;6146257;23;20349;-89
2024/01/25 04:32:25;;;;;;;18.08;2.88;;;;;;;;;;6122281;23;20046;-90
2024/01/25 04:34:51;;;;;;;22.65;4.03;;;;;;;;;;6145216;23;20028;-89
2024/01/25 04:37:17;;;;;;;26.67;3.58;;;;;;;;;;6122131;23;20024;-89
2024/01/25 04:39:43;;;;;;;27.77;3.85;;;;;;;;;;6145818;23;20556;-89
2024/01/25 04:42:09;;;;;;;17.55;4.45;;;;;;;;;;6146349;23;20370;-89
2024/01/25 04:44:35;;;;;;;19.55;4.00;;;;;;;;;;6172758;23;20836;-88
2024/01/25 04:47:01;;;;;;;23.80;3.20;;;;;;;;;;6122547;23;20104;-89
2024/01/25 04:49:27;;;;;;;23.90;3.13;;;;;;;;;;6122453;23;20025;-89
2024/01/25 04:51:53;;;;;;;25.33;4.10;;;;;;;;;;6120961;23;20025;-89
2024/01/25 04:54:19;;;;;;;19.13;3.95;;;;;;;;;;6123314;23;20021;-89
2024/01/25 04:56:45;;;;;;;21.02;4.20;;;;;;;;;;6119938;23;20024;-89
2024/01/25 04:59:11;;;;;;;18.30;3.45;;;;;;;;;;6148076;23;20017;-89
2024/01/25 05:01:38;;;;;;;22.58;3.47;;;;;;;;;;6120502;23;20097;-89
2024/01/25 05:04:04;;;;;;;20.23;3.50;;;;;;;;;;6147589;23;20091;-89
2024/01/25 05:06:30;;;;;;;21.73;3.63;;;;;;;;;;6122678;23;20021;-89
2024/01/25 05:08:56;;;;;;;25.92;4.28;;;;;;;;;;6121759;23;20020;-89
2024/01/25 05:11:22;;;;;;;24.25;3.60;;;;;;;;;;6146967;23;20017;-89
2024/01/25 05:13:48;;;;;;;19.77;3.67;;;;;;;;;;6144962;23;20029;-89
2024/01/25 05:16:15;;;;;;;20.38;3.67;;;;;;;;;;6123845;23;20088;-89
2024/01/25 05:18:41;;;;;;;22.48;3.17;;;;;;;;;;6145898;23;20032;-89
2024/01/25 05:21:07;;;;;;;24.13;4.05;;;;;;;;;;6124107;23;20104;-89
2024/01/25 05:23:33;;;;;;;27.08;3.83;;;;;;;;;;6123336;23;20024;-89
2024/01/25 05:25:59;;;;;;;24.98;4.72;;;;;;;;;;6121461;23;20021;-89
2024/01/25 05:28:25;;;;;;;16.48;3.70;;;;;;;;;;6124807;23;20013;-89
2024/01/25 05:30:51;;;;;;;17.42;3.65;;;;;;;;;;6148501;23;20021;-89
2024/01/25 05:33:17;;;;;;;19.67;3.60;;;;;;;;;;6147890;23;20091;-89
2024/01/25 05:35:44;;;;;;;25.15;4.35;;;;;;;;;;6122967;23;20016;-89
2024/01/25 05:38:10;;;;;;;18.95;3.22;;;;;;;;;;6124850;23;20028;-89
2024/01/25 05:40:36;;;;;;;15.60;3.30;;;;;;;;;;6124962;23;20094;-89
2024/01/25 05:43:03;;;;;;;22.83;3.42;;;;;;;;;;6122720;23;20017;-89
2024/01/25 05:45:29;;;;;;;23.92;3.60;;;;;;;;;;6125017;23;20024;-88
2024/01/25 05:47:55;;;;;;;23.40;3.95;;;;;;;;;;6122982;23;20195;-89
2024/01/25 05:50:21;;;;;;;29.50;4.03;;;;;;;;;;6125691;23;20068;-88
2024/01/25 05:52:47;;;;;;;16.05;4.03;;;;;;;;;;6121856;23;20338;-89
2024/01/25 05:55:14;;;;;;;31.13;3.85;;;;;;;;;;6149524;23;20021;-88
2024/01/25 05:57:46;;;;;;;23.95;3.45;;;;;;;;;;6123749;23;20023;-89
2024/01/25 06:00:13;;;;;;;16.80;2.60;;;;;;;;;;6149015;23;20016;-89
2024/01/25 06:02:39;;;;;;;17.85;3.25;;;;;;;;;;6120897;23;20027;-88
2024/01/25 06:05:05;;;;;;;27.13;3.85;;;;;;;;;;6148007;23;20021;-89
2024/01/25 06:07:31;;;;;;;22.08;3.42;;;;;;;;;;6124983;23;20052;-89
2024/01/25 06:09:57;;;;;;;19.67;4.05;;;;;;;;;;6122155;23;20028;-89
2024/01/25 06:12:23;;;;;;;24.17;3.80;;;;;;;;;;6123491;23;20020;-89
2024/01/25 06:14:51;;;;;;;19.75;3.38;;;;;;;;;;6147599;23;20031;-91
2024/01/25 06:17:17;;;;;;;22.48;4.20;;;;;;;;;;6151816;23;20092;-91
2024/01/25 06:19:44;;;;;;;16.75;3.92;;;;;;;;;;6122619;23;20093;-90
2024/01/25 06:22:12;;;;;;;20.95;4.05;;;;;;;;;;6150181;23;20017;-90
2024/01/25 06:24:38;;;;;;;21.15;4.20;;;;;;;;;;6150107;23;20100;-90
2024/01/25 06:27:04;;;;;;;23.27;4.85;;;;;;;;;;6128138;23;20104;-91
2024/01/25 06:29:30;;;;;;;19.20;4.40;;;;;;;;;;6128113;23;20051;-91
2024/01/25 06:31:58;;;;;;;23.95;4.97;;;;;;;;;;6123290;23;20029;-91
2024/01/25 06:34:28;;;;;;;25.58;4.25;;;;;;;;;;6130893;23;20021;-91
2024/01/25 06:36:54;;;;;;;18.83;4.35;;;;;;;;;;6125646;23;20017;-91
2024/01/25 06:39:20;;;;;;;22.67;4.80;;;;;;;;;;6128810;23;20009;-91
2024/01/25 06:41:48;;;;;;;20.38;5.05;;;;;;;;;;6151254;23;20028;-91
2024/01/25 06:47:32;;;;;;;24.00;4.07;;;;;;;;;;6172721;23;20052;-89
2024/01/25 06:50:01;;;;;;;26.23;5.57;;;;;;;;;;6149890;23;20036;-89
2024/01/25 06:52:34;;;;;;;;;;;;;;;;;;6126499;23;20017;-88
2024/01/25 06:55:06;;;;;;;30.25;4.75;;;;;;;;;;6150603;23;20332;-89
2024/01/25 06:57:32;;;;;;;23.67;5.35;;;;;;;;;;6124283;23;20092;-88
2024/01/25 07:00:07;;;;;;;23.88;4.43;;;;;;;;;;6145803;23;20086;-87
2024/01/25 07:03:12;;;;;;;15.35;3.88;;;;;;;;;;6149731;23;20119;-86
2024/01/25 07:05:48;;;;;;;18.80;4.75;;;;;;;;;;6169763;23;20016;-87
2024/01/25 07:08:17;;;;;;;22.25;6.30;;;;;;;;;;6148172;23;20012;-86
2024/01/25 07:10:43;;;;;;;27.65;4.20;;;;;;;;;;6117656;23;20400;-88
2024/01/25 07:13:11;;;;;;;28.55;5.75;;;;;;;;;;6124425;23;20039;-88
2024/01/25 07:15:45;;;;;;;28.38;5.35;;;;;;;;;;6122503;23;20111;-89
2024/01/25 07:18:14;;;;;;;22.23;3.97;;;;;;;;;;6126165;23;20017;-88
2024/01/25 07:20:48;;;;;;;24.00;4.60;;;;;;;;;;6149097;23;20027;-89
2024/01/25 07:23:14;;;;;;;23.80;4.47;;;;;;;;;;6149816;23;20477;-88
2024/01/25 07:28:19;;;;;;;27.67;5.07;;;;;;;;;;6204574;23;20029;-88
2024/01/25 07:30:49;;;;;;;27.50;4.80;;;;;;;;;;6150291;23;20017;-85
2024/01/25 07:33:25;;;;;;;24.38;4.53;;;;;;;;;;6129658;23;20019;-85
2024/01/25 07:36:00;;;;;;;27.08;4.88;;;;;;;;;;6130859;23;20028;-85
2024/01/25 07:38:48;;;;;;;;;;;;;;;;;;;;;
2024/01/25 07:41:17;;;;;;;23.42;4.35;;;;;;;;;;6157035;23;20070;-85
2024/01/25 07:46:50;;;;;;;22.98;4.18;;;;;;;;;;6159797;23;20028;-85
2024/01/25 07:49:25;;;;;;;26.35;4.00;;;;;;;;;;6126328;23;20040;-85
2024/01/25 07:51:56;;;;;;;24.60;4.65;;;;;;;;;;6128433;23;20033;-85
2024/01/25 07:54:38;;;;;;;20.02;4.07;;;;;;;;;;6153432;23;20020;-85
2024/01/25 07:57:10;;;;;;;26.65;4.05;;;;;;;;;;6155978;23;20023;-89
2024/01/25 07:59:39;;;;;;;17.58;3.10;;;;;;;;;;6154211;23;20019;-88
2024/01/25 08:02:07;;;;;;;21.80;3.28;;;;;;;;;;6155293;23;20020;-89
2024/01/25 08:04:33;;;;;;;22.05;4.78;;;;;;;;;;6154369;23;20012;-89
2024/01/25 08:07:08;;;;;;;20.40;3.53;;;;;;;;;;6133841;23;20017;-89
2024/01/25 08:09:59;;;;;;;30.02;4.00;;;;;;;;;;6128366;23;20040;-90
2024/01/25 08:12:27;;;;;;;22.38;4.20;;;;;;;;;;6133136;23;20028;-90
2024/01/25 08:14:53;;;;;;;;;;;;;;;;;;6128544;23;20066;-89
2024/01/25 08:17:20;;;;;;;23.15;4.20;;;;;;;;;;6180924;23;19946;-89
2024/01/25 08:19:46;;;;;;;30.75;3.70;;;;;;;;;;6128961;23;20020;-89
2024/01/25 08:22:12;;;;;;;18.85;3.30;;;;;;;;;;6130481;23;20021;-89
2024/01/25 08:24:41;;;;;;;18.30;3.67;;;;;;;;;;6127496;23;20397;-89
2024/01/25 08:27:30;;;;;;;21.13;3.90;;;;;;;;;;6131105;23;20451;-90
2024/01/25 08:30:21;;;;;;;21.55;4.05;;;;;;;;;;6152977;23;20032;-87
2024/01/25 08:33:19;;;;;;;29.77;3.95;;;;;;;;;;6176835;23;20104;-87
2024/01/25 08:38:27;;;;;;;26.95;4.20;;;;;;;;;;6152760;23;20081;-89
2024/01/25 08:40:53;;;;;;;29.25;4.15;;;;;;;;;;6154461;23;20024;-89
2024/01/25 08:43:21;;;;;;;32.50;4.55;;;;;;;;;;6156333;23;20013;-89
2024/01/25 08:45:51;;;;;;;23.42;4.22;;;;;;;;;;6129808;23;20071;-89
2024/01/25 08:48:20;;;;;;;17.27;3.75;;;;;;;;;;6131317;23;20024;-88
2024/01/25 08:50:52;;;;;;;25.52;3.83;;;;;;;;;;6130214;23;20099;-89
2024/01/25 08:53:26;;;;;;;22.20;4.15;;;;;;;;;;6132681;23;20020;-89
2024/01/25 08:55:57;;;;;;;24.48;3.85;;;;;;;;;;6155508;23;20021;-89
2024/01/25 08:58:24;;;;;;;33.25;4.80;;;;;;;;;;6130848;23;20024;-89
2024/01/25 09:00:55;;;;;;;19.00;3.45;;;;;;;;;;6129801;23;20017;-89
2024/01/25 09:03:22;;;;;;;23.23;4.45;;;;;;;;;;6133836;23;20443;-89
2024/01/25 09:05:52;;;;;;;28.63;5.03;;;;;;;;;;6130139;23;20070;-89
2024/01/25 09:08:19;;;;;;;25.15;4.25;;;;;;;;;;6133860;23;20017;-89
2024/01/25 09:10:46;;;;;;;20.17;4.35;;;;;;;;;;6131674;23;20039;-89
2024/01/25 09:13:14;;;;;;;25.60;4.10;;;;;;;;;;6133523;23;20021;-89
2024/01/25 09:15:43;;;;;;;22.85;3.97;;;;;;;;;;6156392;23;20017;-89
2024/01/25 09:18:10;;;;;;;22.88;4.97;;;;;;;;;;6158192;23;20106;-89
2024/01/25 09:20:37;;;;;;;25.50;4.00;;;;;;;;;;6156681;23;20013;-89
2024/01/25 09:23:04;;;;;;;28.25;5.05;;;;;;;;;;6157874;23;20032;-89
2024/01/25 09:25:31;;;;;;;26.88;6.30;;;;;;;;;;6134296;23;20047;-89
2024/01/25 09:28:01;;;;;;;34.33;6.60;;;;;;;;;;6156168;23;20024;-89
2024/01/25 09:30:28;;;;;;;28.85;5.72;;;;;;;;;;6158162;23;20016;-89
2024/01/25 09:32:59;;;;;;;34.80;6.32;;;;;;;;;;6132842;23;20035;-90
2024/01/25 09:35:29;;;;;;;30.07;5.93;;;;;;;;;;6155796;23;20017;-89
2024/01/25 09:37:58;;;;;;;29.30;5.95;;;;;;;;;;6156358;23;20024;-89
2024/01/25 09:40:33;;;;;;;28.85;5.63;;;;;;;;;;6128689;23;20604;-90
2024/01/25 09:43:03;;;;;;;29.10;6.47;;;;;;;;;;6125310;23;20022;-89
2024/01/25 09:45:34;;;;;;;29.42;5.78;;;;;;;;;;6123879;23;20099;-89
2024/01/25 09:48:05;;;;;;;27.80;4.95;;;;;;;;;;6146737;23;20021;-89
2024/01/25 09:50:33;;;;;;;24.92;5.22;;;;;;;;;;6123099;23;20049;-89
2024/01/25 09:53:03;;;;;;;15.98;4.45;;;;;;;;;;6122196;23;20096;-89
2024/01/25 09:55:31;;;;;;;25.02;4.65;;;;;;;;;;6124101;23;20013;-89
2024/01/25 09:57:57;;;;;;;30.55;5.65;;;;;;;;;;6121696;23;20116;-89
2024/01/25 10:00:25;;;;;;;18.15;5.00;;;;;;;;;;6123599;23;20587;-89
2024/01/25 10:02:53;;;;;;;21.85;5.25;;;;;;;;;;6121293;23;20025;-88
2024/01/25 10:05:20;;;;;;;19.73;5.60;;;;;;;;;;6119877;23;20033;-88
2024/01/25 15:17:19;;;;;;;12.43;3.53;;;;;;;;;;6147234;23;20021;-90
2024/01/25 15:20:18;;;;;;;16.73;3.15;;;;;;;;;;6117246;23;20104;-90
2024/01/25 15:30:26;;;;;;;;;;;;;;;;;;;;;
2024/01/25 19:50:18;;;;;;;37.97;15.55;;;;;;;;;;6161127;22;20029;-87
2024/01/25 20:04:50;;;;;;;41.13;16.88;;;;;;;;;;5926601;24;20070;-90
2024/01/25 20:10:36;;;;;;;;;;;;;;;;;;;;;
2024/01/25 20:17:37;;;;;;;;;;;;;;;;;;;;;
2024/01/25 20:30:38;;;;;;;;;;;;;;;;;;;;;
2024/01/25 20:37:25;;;;;;;;;;;;;;;;;;;;;
2024/01/25 20:43:29;;;;;;;;;;;;;;;;;;;;;
2024/01/25 20:52:23;;;;;;;57.00;18.00;;;;;;;;;;6124749;23;19924;-90
2024/01/25 20:55:10;;;;;;;;;;;;;;;;;;;;;
2024/01/25 20:58:25;;;;;;;47.67;17.73;;;;;;;;;;6139284;23;20056;-89
2024/01/25 21:04:08;;;;;;;46.53;16.30;;;;;;;;;;6122595;23;20776;-89
2024/01/25 21:10:37;;;;;;;85.43;33.28;;;;;;;;;;6109660;23;20029;-89
2024/01/25 21:16:35;;;;;;;50.42;17.08;;;;;;;;;;6011185;23;20037;-90
2024/01/25 21:19:09;;;;;;;48.25;16.48;;;;;;;;;;6116305;23;20014;-89
2024/01/25 21:21:52;;;;;;;49.63;17.63;;;;;;;;;;6121948;23;20099;-89
2024/01/25 21:24:21;;;;;;;42.17;16.00;;;;;;;;;;6097325;23;20022;-89
2024/01/25 21:27:01;;;;;;;46.60;16.73;;;;;;;;;;6095241;23;20029;-89
2024/01/25 21:29:53;;;;;;;45.50;16.95;;;;;;;;;;6119988;23;20020;-90
2024/01/25 21:32:24;;;;;;;45.67;16.20;;;;;;;;;;6124811;23;20346;-90
2024/01/25 21:34:55;;;;;;;45.47;15.35;;;;;;;;;;6093155;23;20354;-89
2024/01/25 21:37:28;;;;;;;41.63;16.42;;;;;;;;;;6094446;23;20033;-89
2024/01/25 21:39:57;;;;;;;42.10;15.65;;;;;;;;;;6118483;23;20025;-90
2024/01/25 21:42:36;;;;;;;38.53;14.85;;;;;;;;;;6116853;23;20018;-90
2024/01/25 21:45:06;;;;;;;32.40;13.75;;;;;;;;;;6097480;23;20021;-89
2024/01/25 21:47:32;;;;;;;36.95;13.57;;;;;;;;;;6143170;23;20445;-89
2024/01/25 21:49:58;;;;;;;31.10;12.80;;;;;;;;;;6091680;23;20057;-89
2024/01/25 21:52:24;;;;;;;36.33;14.32;;;;;;;;;;6093480;23;20375;-89
2024/01/25 21:55:00;;;;;;;35.55;14.93;;;;;;;;;;6091072;23;20022;-89
2024/01/25 21:57:38;;;;;;;32.75;14.02;;;;;;;;;;6119486;23;20045;-89
2024/01/25 22:00:12;;;;;;;38.28;14.70;;;;;;;;;;6096117;23;20532;-90
2024/01/25 22:02:47;;;;;;;40.22;19.70;;;;;;;;;;6092118;23;20021;-90
2024/01/25 22:05:26;;;;;;;;;;;;;;;;;;;;;
2024/01/25 23:29:04;;;;;;;36.22;14.82;;;;;;;;;;6159167;22;20108;-88
2024/01/25 23:32:05;;;;;;;36.38;14.25;;;;;;;;;;6142009;23;20028;-88
2024/01/25 23:38:21;;;;;;;;;;;;;;;;;;;;;
2024/01/25 23:44:15;;;;;;;42.72;14.13;;;;;;;;;;6138840;23;20514;-88
2024/01/25 23:47:13;;;;;;;43.33;14.57;;;;;;;;;;6116168;23;20029;-88
2024/01/25 23:49:41;;;;;;;43.60;15.98;;;;;;;;;;6117663;23;20375;-88
2024/01/25 23:52:35;;;;;;;41.25;15.25;;;;;;;;;;6111578;23;20022;-87
